Terminal Aerodrome Forecast
Issued by NWS

Home | Current Version | Previous Version | Text Only | Print | Product List | Glossary On
Versions: 1 2 3 4 5 6 7 8 9 10 11 12 13 14 15 16 17 18 19
000
FTUS42 KMHX 250200 AAA
TAFISO
TAF AMD
KISO 250215Z 2502/2524 02005KT P6SM VCTS SCT025 BKN040CB
      TEMPO 2502/2504 3SM RA BKN007 OVC020
     FM250500 VRB02KT 3SM BR SCT010 BKN100
     FM251300 06005KT P6SM SCT040 BKN100
      AMD LTD TO CLD VIS AND WIND=

USA.gov is the U.S. government's official web portal to all federal, state and local government web resources and services.